sensor_id;sensor_type;location;lat;lon;timestamp;temperature;humidity
24146;DHT22;12308;50.948;4.706;2023-07-16T00:02:23;19.10;99.90
24146;DHT22;12308;50.948;4.706;2023-07-16T00:04:48;19.20;99.90
24146;DHT22;12308;50.948;4.706;2023-07-16T00:07:14;19.20;99.90
24146;DHT22;12308;50.948;4.706;2023-07-16T00:09:40;19.10;99.90
24146;DHT22;12308;50.948;4.706;2023-07-16T00:12:05;19.10;99.90
24146;DHT22;12308;50.948;4.706;2023-07-16T00:14:31;18.90;99.90
24146;DHT22;12308;50.948;4.706;2023-07-16T00:16:57;18.90;99.90
24146;DHT22;12308;50.948;4.706;2023-07-16T00:19:23;18.90;99.90
24146;DHT22;12308;50.948;4.706;2023-07-16T00:21:49;18.90;99.90
24146;DHT22;12308;50.948;4.706;2023-07-16T00:24:14;19.00;99.90
24146;DHT22;12308;50.948;4.706;2023-07-16T00:26:40;19.10;99.90
24146;DHT22;12308;50.948;4.706;2023-07-16T00:29:05;19.00;99.90
24146;DHT22;12308;50.948;4.706;2023-07-16T00:31:31;19.10;99.90
24146;DHT22;12308;50.948;4.706;2023-07-16T00:33:57;19.00;99.90
24146;DHT22;12308;50.948;4.706;2023-07-16T00:36:23;19.00;99.90
24146;DHT22;12308;50.948;4.706;2023-07-16T00:38:48;19.00;99.90
24146;DHT22;12308;50.948;4.706;2023-07-16T00:41:15;19.00;99.90
24146;DHT22;12308;50.948;4.706;2023-07-16T00:43:41;18.80;99.90
24146;DHT22;12308;50.948;4.706;2023-07-16T00:46:08;18.70;99.90
24146;DHT22;12308;50.948;4.706;2023-07-16T00:48:34;18.80;99.90
24146;DHT22;12308;50.948;4.706;2023-07-16T00:51:01;18.80;99.90
24146;DHT22;12308;50.948;4.706;2023-07-16T00:53:27;18.70;99.90
24146;DHT22;12308;50.948;4.706;2023-07-16T00:55:53;18.60;99.90
24146;DHT22;12308;50.948;4.706;2023-07-16T00:58:18;18.50;99.90
24146;DHT22;12308;50.948;4.706;2023-07-16T01:00:44;18.40;99.90
24146;DHT22;12308;50.948;4.706;2023-07-16T01:03:12;18.40;99.90
24146;DHT22;12308;50.948;4.706;2023-07-16T01:08:14;18.40;99.90
24146;DHT22;12308;50.948;4.706;2023-07-16T01:10:45;18.30;99.90
24146;DHT22;12308;50.948;4.706;2023-07-16T01:13:11;18.20;99.90
24146;DHT22;12308;50.948;4.706;2023-07-16T01:15:37;18.20;99.90
24146;DHT22;12308;50.948;4.706;2023-07-16T01:18:04;18.20;99.90
24146;DHT22;12308;50.948;4.706;2023-07-16T01:20:30;18.20;99.90
24146;DHT22;12308;50.948;4.706;2023-07-16T01:23:21;18.20;99.90
24146;DHT22;12308;50.948;4.706;2023-07-16T01:26:59;18.10;99.90
24146;DHT22;12308;50.948;4.706;2023-07-16T01:29:23;18.10;99.90
24146;DHT22;12308;50.948;4.706;2023-07-16T01:31:52;18.00;99.90
24146;DHT22;12308;50.948;4.706;2023-07-16T01:34:19;18.00;99.90
24146;DHT22;12308;50.948;4.706;2023-07-16T01:36:46;18.00;99.90
24146;DHT22;12308;50.948;4.706;2023-07-16T01:39:12;17.90;99.90
24146;DHT22;12308;50.948;4.706;2023-07-16T01:41:38;17.90;99.90
24146;DHT22;12308;50.948;4.706;2023-07-16T01:44:03;18.00;99.90
24146;DHT22;12308;50.948;4.706;2023-07-16T01:46:29;17.90;99.90
24146;DHT22;12308;50.948;4.706;2023-07-16T01:48:55;17.80;99.90
24146;DHT22;12308;50.948;4.706;2023-07-16T01:51:20;17.80;99.90
24146;DHT22;12308;50.948;4.706;2023-07-16T01:53:46;17.70;99.90
24146;DHT22;12308;50.948;4.706;2023-07-16T01:56:12;17.60;99.90
24146;DHT22;12308;50.948;4.706;2023-07-16T01:58:38;17.60;99.90
24146;DHT22;12308;50.948;4.706;2023-07-16T02:01:04;17.50;99.90
24146;DHT22;12308;50.948;4.706;2023-07-16T02:03:29;17.30;99.90
24146;DHT22;12308;50.948;4.706;2023-07-16T02:05:55;17.20;99.90
24146;DHT22;12308;50.948;4.706;2023-07-16T02:08:21;17.20;99.90
24146;DHT22;12308;50.948;4.706;2023-07-16T02:10:50;17.20;99.90
24146;DHT22;12308;50.948;4.706;2023-07-16T02:13:16;17.10;99.90
24146;DHT22;12308;50.948;4.706;2023-07-16T02:15:42;17.00;99.90
24146;DHT22;12308;50.948;4.706;2023-07-16T02:18:08;17.10;99.90
24146;DHT22;12308;50.948;4.706;2023-07-16T02:20:33;17.10;99.90
24146;DHT22;12308;50.948;4.706;2023-07-16T02:22:59;17.10;99.90
24146;DHT22;12308;50.948;4.706;2023-07-16T02:25:25;17.10;99.90
24146;DHT22;12308;50.948;4.706;2023-07-16T02:27:51;17.20;99.90
24146;DHT22;12308;50.948;4.706;2023-07-16T02:30:17;17.30;99.90
24146;DHT22;12308;50.948;4.706;2023-07-16T02:32:43;17.30;99.90
24146;DHT22;12308;50.948;4.706;2023-07-16T02:35:09;17.30;99.90
24146;DHT22;12308;50.948;4.706;2023-07-16T02:37:35;17.20;99.90
24146;DHT22;12308;50.948;4.706;2023-07-16T02:40:01;17.10;99.90
24146;DHT22;12308;50.948;4.706;2023-07-16T02:42:26;17.20;99.90
24146;DHT22;12308;50.948;4.706;2023-07-16T02:44:52;17.20;99.90
24146;DHT22;12308;50.948;4.706;2023-07-16T02:47:18;17.10;99.90
24146;DHT22;12308;50.948;4.706;2023-07-16T02:49:43;17.10;99.90
24146;DHT22;12308;50.948;4.706;2023-07-16T02:52:09;17.00;99.90
24146;DHT22;12308;50.948;4.706;2023-07-16T02:54:35;17.00;99.90
24146;DHT22;12308;50.948;4.706;2023-07-16T02:57:01;17.00;99.90
24146;DHT22;12308;50.948;4.706;2023-07-16T02:59:27;17.00;99.90
24146;DHT22;12308;50.948;4.706;2023-07-16T03:01:54;17.00;99.90
24146;DHT22;12308;50.948;4.706;2023-07-16T03:04:20;16.90;99.90
24146;DHT22;12308;50.948;4.706;2023-07-16T03:06:46;16.90;99.90
24146;DHT22;12308;50.948;4.706;2023-07-16T03:09:11;16.90;99.90
24146;DHT22;12308;50.948;4.706;2023-07-16T03:11:37;16.90;99.90
24146;DHT22;12308;50.948;4.706;2023-07-16T03:14:03;16.80;99.90
24146;DHT22;12308;50.948;4.706;2023-07-16T03:16:29;16.80;99.90
24146;DHT22;12308;50.948;4.706;2023-07-16T03:18:54;16.70;99.90
24146;DHT22;12308;50.948;4.706;2023-07-16T03:21:20;16.70;99.90
24146;DHT22;12308;50.948;4.706;2023-07-16T03:23:46;16.70;99.90
24146;DHT22;12308;50.948;4.706;2023-07-16T03:26:11;16.70;99.90
24146;DHT22;12308;50.948;4.706;2023-07-16T03:28:37;16.70;99.90
24146;DHT22;12308;50.948;4.706;2023-07-16T03:31:03;16.70;99.90
24146;DHT22;12308;50.948;4.706;2023-07-16T03:33:28;16.70;99.90
24146;DHT22;12308;50.948;4.706;2023-07-16T03:35:54;16.90;99.90
24146;DHT22;12308;50.948;4.706;2023-07-16T03:38:19;16.80;99.90
24146;DHT22;12308;50.948;4.706;2023-07-16T03:40:49;16.70;99.90
24146;DHT22;12308;50.948;4.706;2023-07-16T03:43:16;16.80;99.90
24146;DHT22;12308;50.948;4.706;2023-07-16T03:45:42;16.80;99.90
24146;DHT22;12308;50.948;4.706;2023-07-16T03:48:08;16.70;99.90
24146;DHT22;12308;50.948;4.706;2023-07-16T03:50:34;16.60;99.90
24146;DHT22;12308;50.948;4.706;2023-07-16T03:53:00;16.60;99.90
24146;DHT22;12308;50.948;4.706;2023-07-16T03:55:26;16.60;99.90
24146;DHT22;12308;50.948;4.706;2023-07-16T03:57:52;16.60;99.90
24146;DHT22;12308;50.948;4.706;2023-07-16T04:00:17;16.50;99.90
24146;DHT22;12308;50.948;4.706;2023-07-16T04:02:43;16.50;99.90
24146;DHT22;12308;50.948;4.706;2023-07-16T04:05:09;16.50;99.90
24146;DHT22;12308;50.948;4.706;2023-07-16T04:07:35;16.50;99.90
24146;DHT22;12308;50.948;4.706;2023-07-16T04:10:01;16.60;99.90
24146;DHT22;12308;50.948;4.706;2023-07-16T04:12:26;16.60;99.90
24146;DHT22;12308;50.948;4.706;2023-07-16T04:14:57;16.70;99.90
24146;DHT22;12308;50.948;4.706;2023-07-16T04:17:23;16.60;99.90
24146;DHT22;12308;50.948;4.706;2023-07-16T04:19:49;16.70;99.90
24146;DHT22;12308;50.948;4.706;2023-07-16T04:22:14;16.60;99.90
24146;DHT22;12308;50.948;4.706;2023-07-16T04:24:40;16.80;99.90
24146;DHT22;12308;50.948;4.706;2023-07-16T04:27:06;16.70;99.90
24146;DHT22;12308;50.948;4.706;2023-07-16T04:29:31;16.70;99.90
24146;DHT22;12308;50.948;4.706;2023-07-16T04:31:57;16.70;99.90
24146;DHT22;12308;50.948;4.706;2023-07-16T04:34:23;16.80;99.90
24146;DHT22;12308;50.948;4.706;2023-07-16T04:36:48;16.80;99.90
24146;DHT22;12308;50.948;4.706;2023-07-16T04:39:14;17.00;99.90
24146;DHT22;12308;50.948;4.706;2023-07-16T04:41:40;17.00;99.90
24146;DHT22;12308;50.948;4.706;2023-07-16T04:44:06;16.90;99.90
24146;DHT22;12308;50.948;4.706;2023-07-16T04:46:31;17.00;99.90
24146;DHT22;12308;50.948;4.706;2023-07-16T04:48:57;17.10;99.90
24146;DHT22;12308;50.948;4.706;2023-07-16T04:51:23;17.10;99.90
24146;DHT22;12308;50.948;4.706;2023-07-16T04:53:49;17.10;99.90
24146;DHT22;12308;50.948;4.706;2023-07-16T04:56:15;17.10;99.90
24146;DHT22;12308;50.948;4.706;2023-07-16T04:58:42;17.10;99.90
24146;DHT22;12308;50.948;4.706;2023-07-16T05:01:08;17.20;99.90
24146;DHT22;12308;50.948;4.706;2023-07-16T05:03:35;17.20;99.90
24146;DHT22;12308;50.948;4.706;2023-07-16T05:06:00;17.20;99.90
24146;DHT22;12308;50.948;4.706;2023-07-16T05:08:26;17.20;99.90
24146;DHT22;12308;50.948;4.706;2023-07-16T05:10:52;17.30;99.90
24146;DHT22;12308;50.948;4.706;2023-07-16T05:13:17;17.40;99.90
24146;DHT22;12308;50.948;4.706;2023-07-16T05:15:46;17.40;99.90
24146;DHT22;12308;50.948;4.706;2023-07-16T05:18:12;17.40;99.90
24146;DHT22;12308;50.948;4.706;2023-07-16T05:20:38;17.50;99.90
24146;DHT22;12308;50.948;4.706;2023-07-16T05:23:04;17.40;99.90
24146;DHT22;12308;50.948;4.706;2023-07-16T05:25:30;17.50;99.90
24146;DHT22;12308;50.948;4.706;2023-07-16T05:27:56;17.40;99.90
24146;DHT22;12308;50.948;4.706;2023-07-16T05:30:22;17.60;99.90
24146;DHT22;12308;50.948;4.706;2023-07-16T05:32:47;17.60;99.90
24146;DHT22;12308;50.948;4.706;2023-07-16T05:35:13;17.70;99.90
24146;DHT22;12308;50.948;4.706;2023-07-16T05:37:39;17.70;99.90
24146;DHT22;12308;50.948;4.706;2023-07-16T05:40:05;17.60;99.90
24146;DHT22;12308;50.948;4.706;2023-07-16T05:42:34;17.70;99.90
24146;DHT22;12308;50.948;4.706;2023-07-16T05:44:59;17.80;99.90
24146;DHT22;12308;50.948;4.706;2023-07-16T05:47:25;17.80;99.90
24146;DHT22;12308;50.948;4.706;2023-07-16T05:49:50;17.90;99.90
24146;DHT22;12308;50.948;4.706;2023-07-16T05:52:16;18.00;99.90
24146;DHT22;12308;50.948;4.706;2023-07-16T05:54:43;18.10;99.90
24146;DHT22;12308;50.948;4.706;2023-07-16T05:57:10;18.10;99.90
24146;DHT22;12308;50.948;4.706;2023-07-16T05:59:36;18.00;99.90
24146;DHT22;12308;50.948;4.706;2023-07-16T06:02:03;18.10;99.90
24146;DHT22;12308;50.948;4.706;2023-07-16T06:04:29;18.00;99.90
24146;DHT22;12308;50.948;4.706;2023-07-16T06:06:55;18.10;99.90
24146;DHT22;12308;50.948;4.706;2023-07-16T06:09:21;18.10;99.90
24146;DHT22;12308;50.948;4.706;2023-07-16T06:11:47;18.20;99.90
24146;DHT22;12308;50.948;4.706;2023-07-16T06:14:14;18.10;99.90
24146;DHT22;12308;50.948;4.706;2023-07-16T06:16:39;18.10;99.90
24146;DHT22;12308;50.948;4.706;2023-07-16T06:19:05;18.20;99.90
24146;DHT22;12308;50.948;4.706;2023-07-16T06:21:31;18.30;99.90
24146;DHT22;12308;50.948;4.706;2023-07-16T06:23:56;18.30;99.90
24146;DHT22;12308;50.948;4.706;2023-07-16T06:26:22;18.30;99.90
24146;DHT22;12308;50.948;4.706;2023-07-16T06:28:47;18.30;99.90
24146;DHT22;12308;50.948;4.706;2023-07-16T06:31:16;18.30;99.90
24146;DHT22;12308;50.948;4.706;2023-07-16T06:33:42;18.40;99.90
24146;DHT22;12308;50.948;4.706;2023-07-16T06:36:07;18.50;99.90
24146;DHT22;12308;50.948;4.706;2023-07-16T06:38:33;18.50;99.90
24146;DHT22;12308;50.948;4.706;2023-07-16T06:40:59;18.50;99.90
24146;DHT22;12308;50.948;4.706;2023-07-16T06:43:24;18.40;99.90
24146;DHT22;12308;50.948;4.706;2023-07-16T06:45:50;18.50;99.90
24146;DHT22;12308;50.948;4.706;2023-07-16T06:48:19;18.50;99.90
24146;DHT22;12308;50.948;4.706;2023-07-16T06:50:44;18.60;99.90
24146;DHT22;12308;50.948;4.706;2023-07-16T06:53:10;18.50;99.90
24146;DHT22;12308;50.948;4.706;2023-07-16T06:55:37;18.50;99.90
24146;DHT22;12308;50.948;4.706;2023-07-16T06:58:02;18.70;99.90
24146;DHT22;12308;50.948;4.706;2023-07-16T07:00:29;18.70;99.90
24146;DHT22;12308;50.948;4.706;2023-07-16T07:02:54;18.80;99.90
24146;DHT22;12308;50.948;4.706;2023-07-16T07:05:20;18.80;99.90
24146;DHT22;12308;50.948;4.706;2023-07-16T07:07:46;18.80;99.90
24146;DHT22;12308;50.948;4.706;2023-07-16T07:10:12;18.90;99.90
24146;DHT22;12308;50.948;4.706;2023-07-16T07:12:38;19.00;99.90
24146;DHT22;12308;50.948;4.706;2023-07-16T07:15:08;19.10;99.90
24146;DHT22;12308;50.948;4.706;2023-07-16T07:17:34;19.10;99.90
24146;DHT22;12308;50.948;4.706;2023-07-16T07:20:01;19.10;99.90
24146;DHT22;12308;50.948;4.706;2023-07-16T07:22:27;19.20;99.90
24146;DHT22;12308;50.948;4.706;2023-07-16T07:24:53;19.20;99.90
24146;DHT22;12308;50.948;4.706;2023-07-16T07:27:18;19.30;99.90
24146;DHT22;12308;50.948;4.706;2023-07-16T07:29:44;19.30;99.90
24146;DHT22;12308;50.948;4.706;2023-07-16T07:32:11;19.30;99.90
24146;DHT22;12308;50.948;4.706;2023-07-16T07:34:38;19.30;99.90
24146;DHT22;12308;50.948;4.706;2023-07-16T07:37:05;19.30;99.90
24146;DHT22;12308;50.948;4.706;2023-07-16T07:39:30;19.40;99.90
24146;DHT22;12308;50.948;4.706;2023-07-16T07:41:56;19.50;99.90
24146;DHT22;12308;50.948;4.706;2023-07-16T07:44:22;19.50;99.90
24146;DHT22;12308;50.948;4.706;2023-07-16T07:46:47;19.50;99.90
24146;DHT22;12308;50.948;4.706;2023-07-16T07:49:13;19.60;99.90
24146;DHT22;12308;50.948;4.706;2023-07-16T07:51:38;19.50;99.90
24146;DHT22;12308;50.948;4.706;2023-07-16T07:54:04;19.50;99.90
24146;DHT22;12308;50.948;4.706;2023-07-16T07:56:30;19.50;99.90
24146;DHT22;12308;50.948;4.706;2023-07-16T07:58:56;19.70;99.90
24146;DHT22;12308;50.948;4.706;2023-07-16T08:01:21;19.90;99.90
24146;DHT22;12308;50.948;4.706;2023-07-16T08:03:47;20.10;99.90
24146;DHT22;12308;50.948;4.706;2023-07-16T08:06:13;20.40;99.90
24146;DHT22;12308;50.948;4.706;2023-07-16T08:08:38;20.70;99.90
24146;DHT22;12308;50.948;4.706;2023-07-16T08:11:04;20.80;99.90
24146;DHT22;12308;50.948;4.706;2023-07-16T08:13:30;20.80;99.90
24146;DHT22;12308;50.948;4.706;2023-07-16T08:15:55;20.70;99.90
24146;DHT22;12308;50.948;4.706;2023-07-16T08:18:21;20.60;99.90
24146;DHT22;12308;50.948;4.706;2023-07-16T08:20:47;20.60;99.90
24146;DHT22;12308;50.948;4.706;2023-07-16T08:23:13;20.50;99.90
24146;DHT22;12308;50.948;4.706;2023-07-16T08:25:38;20.50;99.90
24146;DHT22;12308;50.948;4.706;2023-07-16T08:28:04;20.60;99.90
24146;DHT22;12308;50.948;4.706;2023-07-16T08:30:34;20.70;99.90
24146;DHT22;12308;50.948;4.706;2023-07-16T08:33:00;20.80;99.90
24146;DHT22;12308;50.948;4.706;2023-07-16T08:35:26;21.20;99.90
24146;DHT22;12308;50.948;4.706;2023-07-16T08:37:51;21.40;99.90
24146;DHT22;12308;50.948;4.706;2023-07-16T08:40:17;21.50;99.90
24146;DHT22;12308;50.948;4.706;2023-07-16T08:42:46;21.50;99.90
24146;DHT22;12308;50.948;4.706;2023-07-16T08:45:13;21.80;99.90
24146;DHT22;12308;50.948;4.706;2023-07-16T08:47:39;21.80;99.90
24146;DHT22;12308;50.948;4.706;2023-07-16T08:50:05;22.00;99.90
24146;DHT22;12308;50.948;4.706;2023-07-16T08:52:31;22.00;99.90
24146;DHT22;12308;50.948;4.706;2023-07-16T08:54:57;22.20;99.90
24146;DHT22;12308;50.948;4.706;2023-07-16T08:57:23;22.40;99.90
24146;DHT22;12308;50.948;4.706;2023-07-16T08:59:49;22.10;99.90
24146;DHT22;12308;50.948;4.706;2023-07-16T09:02:19;22.10;99.90
24146;DHT22;12308;50.948;4.706;2023-07-16T09:04:48;22.20;99.90
24146;DHT22;12308;50.948;4.706;2023-07-16T09:07:15;22.60;99.90
24146;DHT22;12308;50.948;4.706;2023-07-16T09:09:41;22.90;99.90
24146;DHT22;12308;50.948;4.706;2023-07-16T09:12:14;22.90;99.90
24146;DHT22;12308;50.948;4.706;2023-07-16T09:14:42;23.20;99.90
24146;DHT22;12308;50.948;4.706;2023-07-16T09:17:09;23.10;99.90
24146;DHT22;12308;50.948;4.706;2023-07-16T09:19:36;23.00;99.90
24146;DHT22;12308;50.948;4.706;2023-07-16T09:22:02;23.10;99.90
24146;DHT22;12308;50.948;4.706;2023-07-16T09:24:28;22.90;99.90
24146;DHT22;12308;50.948;4.706;2023-07-16T09:26:55;22.50;99.90
24146;DHT22;12308;50.948;4.706;2023-07-16T09:29:25;22.50;99.90
24146;DHT22;12308;50.948;4.706;2023-07-16T09:32:00;22.50;99.90
24146;DHT22;12308;50.948;4.706;2023-07-16T09:34:28;22.50;99.90
24146;DHT22;12308;50.948;4.706;2023-07-16T09:36:57;22.80;99.90
24146;DHT22;12308;50.948;4.706;2023-07-16T09:39:25;22.90;99.90
24146;DHT22;12308;50.948;4.706;2023-07-16T09:41:51;23.00;99.90
24146;DHT22;12308;50.948;4.706;2023-07-16T09:44:17;22.90;99.90
24146;DHT22;12308;50.948;4.706;2023-07-16T09:46:44;22.90;99.90
24146;DHT22;12308;50.948;4.706;2023-07-16T09:49:10;23.00;99.90
24146;DHT22;12308;50.948;4.706;2023-07-16T09:51:38;23.10;99.90
24146;DHT22;12308;50.948;4.706;2023-07-16T09:54:05;23.00;99.90
24146;DHT22;12308;50.948;4.706;2023-07-16T09:56:40;23.10;99.90
24146;DHT22;12308;50.948;4.706;2023-07-16T09:59:13;23.00;99.90
24146;DHT22;12308;50.948;4.706;2023-07-16T10:01:39;23.00;99.90
24146;DHT22;12308;50.948;4.706;2023-07-16T10:04:16;23.00;99.90
24146;DHT22;12308;50.948;4.706;2023-07-16T10:06:58;23.10;99.90
24146;DHT22;12308;50.948;4.706;2023-07-16T10:09:40;22.80;99.90
24146;DHT22;12308;50.948;4.706;2023-07-16T10:12:17;22.70;99.90
24146;DHT22;12308;50.948;4.706;2023-07-16T10:14:46;22.60;99.90
24146;DHT22;12308;50.948;4.706;2023-07-16T10:17:13;22.50;99.90
24146;DHT22;12308;50.948;4.706;2023-07-16T10:22:14;22.80;99.90
24146;DHT22;12308;50.948;4.706;2023-07-16T10:24:40;22.90;99.90
24146;DHT22;12308;50.948;4.706;2023-07-16T10:27:06;22.90;99.90
24146;DHT22;12308;50.948;4.706;2023-07-16T10:29:32;22.90;99.90
24146;DHT22;12308;50.948;4.706;2023-07-16T10:31:58;22.90;99.90
24146;DHT22;12308;50.948;4.706;2023-07-16T10:34:24;22.80;99.90
24146;DHT22;12308;50.948;4.706;2023-07-16T10:36:51;22.80;99.90
24146;DHT22;12308;50.948;4.706;2023-07-16T10:39:17;22.70;99.90
24146;DHT22;12308;50.948;4.706;2023-07-16T10:41:43;22.50;99.90
24146;DHT22;12308;50.948;4.706;2023-07-16T10:44:09;22.20;99.90
24146;DHT22;12308;50.948;4.706;2023-07-16T10:46:36;22.20;99.90
24146;DHT22;12308;50.948;4.706;2023-07-16T10:49:02;22.10;99.90
24146;DHT22;12308;50.948;4.706;2023-07-16T10:51:28;22.10;99.90
24146;DHT22;12308;50.948;4.706;2023-07-16T10:53:57;21.90;99.90
24146;DHT22;12308;50.948;4.706;2023-07-16T10:56:22;21.80;99.90
24146;DHT22;12308;50.948;4.706;2023-07-16T10:58:48;21.90;99.90
24146;DHT22;12308;50.948;4.706;2023-07-16T11:01:14;22.10;99.90
24146;DHT22;12308;50.948;4.706;2023-07-16T11:03:40;22.30;99.90
24146;DHT22;12308;50.948;4.706;2023-07-16T11:06:09;22.30;99.90
24146;DHT22;12308;50.948;4.706;2023-07-16T11:08:37;22.20;99.90
24146;DHT22;12308;50.948;4.706;2023-07-16T11:11:03;22.60;99.90
24146;DHT22;12308;50.948;4.706;2023-07-16T11:13:33;23.10;99.90
24146;DHT22;12308;50.948;4.706;2023-07-16T11:16:09;23.40;99.90
24146;DHT22;12308;50.948;4.706;2023-07-16T11:18:35;23.40;99.90
24146;DHT22;12308;50.948;4.706;2023-07-16T11:21:00;23.50;99.90
24146;DHT22;12308;50.948;4.706;2023-07-16T11:23:26;23.50;99.90
24146;DHT22;12308;50.948;4.706;2023-07-16T11:25:52;23.90;99.90
24146;DHT22;12308;50.948;4.706;2023-07-16T11:28:18;24.40;99.90
24146;DHT22;12308;50.948;4.706;2023-07-16T11:30:44;24.60;99.90
24146;DHT22;12308;50.948;4.706;2023-07-16T11:33:13;24.90;99.90
24146;DHT22;12308;50.948;4.706;2023-07-16T11:35:39;24.70;99.90
24146;DHT22;12308;50.948;4.706;2023-07-16T11:38:07;24.60;99.90
24146;DHT22;12308;50.948;4.706;2023-07-16T11:40:36;24.10;99.90
24146;DHT22;12308;50.948;4.706;2023-07-16T11:43:11;24.00;99.90
24146;DHT22;12308;50.948;4.706;2023-07-16T11:45:38;23.80;99.90
24146;DHT22;12308;50.948;4.706;2023-07-16T11:48:04;23.60;99.90
24146;DHT22;12308;50.948;4.706;2023-07-16T11:50:30;23.40;99.90
24146;DHT22;12308;50.948;4.706;2023-07-16T11:53:01;22.90;99.90
24146;DHT22;12308;50.948;4.706;2023-07-16T11:55:27;23.00;99.90
24146;DHT22;12308;50.948;4.706;2023-07-16T11:57:53;23.00;99.90
24146;DHT22;12308;50.948;4.706;2023-07-16T12:00:19;23.50;99.90
24146;DHT22;12308;50.948;4.706;2023-07-16T12:02:44;23.70;99.90
24146;DHT22;12308;50.948;4.706;2023-07-16T12:05:20;23.90;99.90
24146;DHT22;12308;50.948;4.706;2023-07-16T12:07:46;23.90;99.90
24146;DHT22;12308;50.948;4.706;2023-07-16T12:10:12;23.70;99.90
24146;DHT22;12308;50.948;4.706;2023-07-16T12:12:38;23.70;99.90
24146;DHT22;12308;50.948;4.706;2023-07-16T12:15:05;23.40;99.90
24146;DHT22;12308;50.948;4.706;2023-07-16T12:17:30;23.40;99.90
24146;DHT22;12308;50.948;4.706;2023-07-16T12:19:56;23.60;99.90
24146;DHT22;12308;50.948;4.706;2023-07-16T12:22:22;23.90;99.90
24146;DHT22;12308;50.948;4.706;2023-07-16T12:24:49;23.90;99.90
24146;DHT22;12308;50.948;4.706;2023-07-16T12:27:15;23.80;99.90
24146;DHT22;12308;50.948;4.706;2023-07-16T12:29:44;23.70;99.90
24146;DHT22;12308;50.948;4.706;2023-07-16T12:32:10;23.90;99.90
24146;DHT22;12308;50.948;4.706;2023-07-16T12:34:36;23.90;99.90
24146;DHT22;12308;50.948;4.706;2023-07-16T12:37:02;23.70;99.90
24146;DHT22;12308;50.948;4.706;2023-07-16T12:39:28;23.80;99.90
24146;DHT22;12308;50.948;4.706;2023-07-16T12:41:54;24.50;99.90
24146;DHT22;12308;50.948;4.706;2023-07-16T12:44:19;25.10;99.90
24146;DHT22;12308;50.948;4.706;2023-07-16T12:46:45;25.30;99.90
24146;DHT22;12308;50.948;4.706;2023-07-16T12:49:11;25.70;99.90
24146;DHT22;12308;50.948;4.706;2023-07-16T12:51:37;25.70;99.90
24146;DHT22;12308;50.948;4.706;2023-07-16T12:54:02;25.50;99.90
24146;DHT22;12308;50.948;4.706;2023-07-16T12:56:28;25.60;99.90
24146;DHT22;12308;50.948;4.706;2023-07-16T12:58:53;25.60;99.90
24146;DHT22;12308;50.948;4.706;2023-07-16T13:01:19;25.20;99.90
24146;DHT22;12308;50.948;4.706;2023-07-16T13:03:45;24.90;99.90
24146;DHT22;12308;50.948;4.706;2023-07-16T13:06:11;24.90;99.90
24146;DHT22;12308;50.948;4.706;2023-07-16T13:08:36;24.50;99.90
24146;DHT22;12308;50.948;4.706;2023-07-16T13:11:02;24.10;99.90
24146;DHT22;12308;50.948;4.706;2023-07-16T13:13:28;24.40;99.90
24146;DHT22;12308;50.948;4.706;2023-07-16T13:15:54;24.60;99.90
24146;DHT22;12308;50.948;4.706;2023-07-16T13:18:20;24.90;99.90
24146;DHT22;12308;50.948;4.706;2023-07-16T13:20:46;25.30;99.90
24146;DHT22;12308;50.948;4.706;2023-07-16T13:23:12;25.70;99.90
24146;DHT22;12308;50.948;4.706;2023-07-16T13:25:38;25.80;99.90
24146;DHT22;12308;50.948;4.706;2023-07-16T13:28:05;25.70;99.90
24146;DHT22;12308;50.948;4.706;2023-07-16T13:30:31;25.80;99.90
24146;DHT22;12308;50.948;4.706;2023-07-16T13:32:57;25.60;99.90
24146;DHT22;12308;50.948;4.706;2023-07-16T13:35:23;25.80;99.90
24146;DHT22;12308;50.948;4.706;2023-07-16T13:37:49;25.80;99.90
24146;DHT22;12308;50.948;4.706;2023-07-16T13:40:15;26.00;99.90
24146;DHT22;12308;50.948;4.706;2023-07-16T13:42:41;25.90;99.90
24146;DHT22;12308;50.948;4.706;2023-07-16T13:45:07;25.70;99.90
24146;DHT22;12308;50.948;4.706;2023-07-16T13:47:33;25.70;99.90
24146;DHT22;12308;50.948;4.706;2023-07-16T13:49:58;25.60;99.90
24146;DHT22;12308;50.948;4.706;2023-07-16T13:52:24;25.50;99.90
24146;DHT22;12308;50.948;4.706;2023-07-16T13:54:50;25.50;99.90
24146;DHT22;12308;50.948;4.706;2023-07-16T13:57:15;25.20;99.90
24146;DHT22;12308;50.948;4.706;2023-07-16T13:59:41;25.00;99.90
24146;DHT22;12308;50.948;4.706;2023-07-16T14:02:07;24.80;99.90
24146;DHT22;12308;50.948;4.706;2023-07-16T14:04:33;24.50;99.90
24146;DHT22;12308;50.948;4.706;2023-07-16T14:06:59;24.20;99.90
24146;DHT22;12308;50.948;4.706;2023-07-16T14:09:25;24.10;99.90
24146;DHT22;12308;50.948;4.706;2023-07-16T14:11:51;24.20;99.90
24146;DHT22;12308;50.948;4.706;2023-07-16T14:14:18;24.20;99.90
24146;DHT22;12308;50.948;4.706;2023-07-16T14:16:43;24.10;99.90
24146;DHT22;12308;50.948;4.706;2023-07-16T14:19:10;23.90;99.90
24146;DHT22;12308;50.948;4.706;2023-07-16T14:21:37;24.00;99.90
24146;DHT22;12308;50.948;4.706;2023-07-16T14:24:04;24.10;99.90
24146;DHT22;12308;50.948;4.706;2023-07-16T14:26:30;24.40;99.90
24146;DHT22;12308;50.948;4.706;2023-07-16T14:28:55;24.60;99.90
24146;DHT22;12308;50.948;4.706;2023-07-16T14:31:21;24.80;99.90
24146;DHT22;12308;50.948;4.706;2023-07-16T14:33:47;25.00;99.90
24146;DHT22;12308;50.948;4.706;2023-07-16T14:36:13;25.00;99.90
24146;DHT22;12308;50.948;4.706;2023-07-16T14:38:39;25.40;99.90
24146;DHT22;12308;50.948;4.706;2023-07-16T14:41:04;25.30;99.90
24146;DHT22;12308;50.948;4.706;2023-07-16T14:43:32;25.30;99.90
24146;DHT22;12308;50.948;4.706;2023-07-16T14:45:57;25.40;99.90
24146;DHT22;12308;50.948;4.706;2023-07-16T14:48:23;25.50;99.90
24146;DHT22;12308;50.948;4.706;2023-07-16T14:50:49;25.50;99.90
24146;DHT22;12308;50.948;4.706;2023-07-16T14:53:16;25.40;99.90
24146;DHT22;12308;50.948;4.706;2023-07-16T14:55:47;25.20;99.90
24146;DHT22;12308;50.948;4.706;2023-07-16T14:58:12;25.00;99.90
24146;DHT22;12308;50.948;4.706;2023-07-16T15:00:38;25.30;99.90
24146;DHT22;12308;50.948;4.706;2023-07-16T15:03:03;25.60;99.90
24146;DHT22;12308;50.948;4.706;2023-07-16T15:05:30;26.00;99.90
24146;DHT22;12308;50.948;4.706;2023-07-16T15:07:55;25.70;99.90
24146;DHT22;12308;50.948;4.706;2023-07-16T15:10:21;25.30;99.90
24146;DHT22;12308;50.948;4.706;2023-07-16T15:12:47;25.30;99.90
24146;DHT22;12308;50.948;4.706;2023-07-16T15:15:13;25.60;99.90
24146;DHT22;12308;50.948;4.706;2023-07-16T15:17:39;25.70;99.90
24146;DHT22;12308;50.948;4.706;2023-07-16T15:20:05;25.30;99.90
24146;DHT22;12308;50.948;4.706;2023-07-16T15:22:31;25.20;99.90
24146;DHT22;12308;50.948;4.706;2023-07-16T15:24:59;25.30;99.90
24146;DHT22;12308;50.948;4.706;2023-07-16T15:27:26;25.30;99.90
24146;DHT22;12308;50.948;4.706;2023-07-16T15:29:52;25.40;99.90
24146;DHT22;12308;50.948;4.706;2023-07-16T15:32:18;25.50;99.90